Aeroporto :
LOGIN :

Iscrizione | Disclaimer

   EN    FR    IT 

 










Sommario :    VFR   VFR Marginale   IFR   IFR Intensivo   IFR Molto Intensivo
Visibilità : 
Base nubi : 
>= 8 km
>= 3000ft
5 / 8 km
1000 / 3000 ft
1500m / 5 km
500 / 1000 ft
800 / 1500m
200 / 500 ft
< 800m
< 200 ft
Simboli :   Temporali  Nebbia  Neve Forte  Precipitazioni Forti  Vento > 20 kt
SIGMETs :   Varie  Temporali  Ghiacco  Turbolenza  Onda orograficha  Ceneri Vulcaniche






- Altitudine del aeroporto : 348 ft
- Codice IATA : TSR


LRTR - Timisoara

ULTIMO METAR :
  • 301530Z 29008KT CAVOK 18/05 Q1014 NOSIG

METARs OBSOLETI :
  • 301500Z 28009KT 9999 FEW049 18/04 Q1014 NOSIG
  • 301430Z 29011KT 9999 FEW049 19/04 Q1014 NOSIG
  • 301400Z 31008KT 9999 FEW049 19/04 Q1014 NOSIG
  • 301330Z 28006KT 270V330 9999 FEW048 FEW055CB 19/05 Q1014 NOSIG
  • 301300Z 35007KT 300V030 9999 FEW047 FEW050CB 19/06 Q1014 NOSIG

TAF TAF LRTR
Valido dal 30 a 12 ore il 31 a 12 ore UTC


301100Z 3012/3112 29008KT 9999 SCT045
TEMPO 3012/3015 VRB20KT 5000 -SHRA SCT010 SCT040CB



MetMap, La meteo Aeronautica in un colpo d'occhio ! - Copyright ORBIFLY Dicembre 2007 - Disclaimer

ORBIFLY MET'MAP TEAM :

Programmazione e sviluppo : Alexandra Zaïnal
Concezione : Baudouin d'Aumeries
Aiuto per la programmazione : Marc-Olivier Méhu
Supporto tecnico e logistico : Manuel Goepfert
Aiuto per la traduzione : Arnaldo La Scala

Contatto : metmap@orbifly.com




FONTI E CREDITI :

   NOAA